Batumi International Airport
UGSB : rendu visible

Aérodrome :











RETROUVEZ-NOUS SUR...

 
LOGIN :

S'inscrire | Disclaimer

   EN    FR    IT 

 









Légende :    VFR   VFR Marginal   IFR   IFR Intensif   IFR Très Intensif
Visi : 
Plafond : 
>= 8 km
>= 3000ft
5 à 8 km
1000 à 3000 ft
1500m à 5 km
500 à 1000 ft
800 à 1500m
200 à 500 ft
< 800m
< 200 ft
Symboles :   Orages  Brouillard  Fortes neiges  Fortes précipitations  Vent > 20 kt







- Altitude de l'aérodrome : 105 ft
- Code IATA : BUS


UGSB - Batumi International

DERNIER METAR :
  • 202200Z 17006KT 130V230 CAVOK 06/M00 Q1020 R13/CLRD70 NOSIG

METARs EXPIRÉS :
  • 202130Z 14018KT CAVOK 07/M02 Q1020 R13/CLRD70 NOSIG
  • 202100Z 14018KT CAVOK 07/M02 Q1020 R13/70D NOSIG
  • 202030Z 14019KT CAVOK 08/M02 Q1020 R13/CLRD70 NOSIG
  • 202000Z 13020KT CAVOK 08/M02 Q1020 R13/70D NOSIG
  • 201930Z 15018KT CAVOK 08/M02 Q1020 R13/CLRD70 NOSIG

TAF TAF UGSB
Valide du 20 à 18h jusqu'au 21 à 18h UTC


201700Z 2018/2118 13018KT CAVOK TX09/2112Z TN04/2101
BECMG 2110/2114 13008KT SCT030
BECMG 2115/2117 22018KT SCT015CB BKN030
FIR UGGG / Asie



MET'MAP, la Météo Aéronautique d'un coup d'oeil ! - Copyright ORBIFLY Décembre 2007 - Disclaimer

ORBIFLY MET'MAP TEAM :

Programmation & Développement : Alexandra Zaïnal
Conception & Développement : Baudouin d'Aumeries
Co-Programmation & Développement : Marc-Olivier Méhu
Soutien technique & logistique : Manuel Goepfert

Contact : metmap@orbifly.com




SOURCES & CREDITS :

   NOAA       Earth
Advisory